sensor_id;sensor_type;location;lat;lon;timestamp;temperature;humidity
2174;DHT22;1093;51.424;11.764;2022-10-04T00:00:50;13.10;1.40
2174;DHT22;1093;51.424;11.764;2022-10-04T00:03:25;13.00;1.40
2174;DHT22;1093;51.424;11.764;2022-10-04T00:05:57;13.00;1.40
2174;DHT22;1093;51.424;11.764;2022-10-04T00:08:29;13.00;1.40
2174;DHT22;1093;51.424;11.764;2022-10-04T00:11:04;13.00;1.40
2174;DHT22;1093;51.424;11.764;2022-10-04T00:13:32;13.00;1.40
2174;DHT22;1093;51.424;11.764;2022-10-04T00:16:00;13.00;1.40
2174;DHT22;1093;51.424;11.764;2022-10-04T00:18:29;12.90;1.40
2174;DHT22;1093;51.424;11.764;2022-10-04T00:21:01;12.90;1.40
2174;DHT22;1093;51.424;11.764;2022-10-04T00:23:41;12.90;1.40
2174;DHT22;1093;51.424;11.764;2022-10-04T00:26:14;12.80;1.40
2174;DHT22;1093;51.424;11.764;2022-10-04T00:28:43;12.80;1.40
2174;DHT22;1093;51.424;11.764;2022-10-04T00:31:20;12.70;1.40
2174;DHT22;1093;51.424;11.764;2022-10-04T00:33:52;12.70;1.40
2174;DHT22;1093;51.424;11.764;2022-10-04T00:36:45;12.70;1.40
2174;DHT22;1093;51.424;11.764;2022-10-04T00:39:22;12.60;1.40
2174;DHT22;1093;51.424;11.764;2022-10-04T00:42:00;12.60;1.40
2174;DHT22;1093;51.424;11.764;2022-10-04T00:44:33;12.60;1.40
2174;DHT22;1093;51.424;11.764;2022-10-04T00:47:12;12.50;1.40
2174;DHT22;1093;51.424;11.764;2022-10-04T00:49:44;12.50;1.40
2174;DHT22;1093;51.424;11.764;2022-10-04T00:52:19;12.50;1.40
2174;DHT22;1093;51.424;11.764;2022-10-04T00:54:49;12.40;1.40
2174;DHT22;1093;51.424;11.764;2022-10-04T00:57:20;12.40;1.40
2174;DHT22;1093;51.424;11.764;2022-10-04T00:59:49;12.40;1.40
2174;DHT22;1093;51.424;11.764;2022-10-04T01:02:20;12.40;1.40
2174;DHT22;1093;51.424;11.764;2022-10-04T01:04:52;12.30;1.40
2174;DHT22;1093;51.424;11.764;2022-10-04T01:07:26;12.30;1.40
2174;DHT22;1093;51.424;11.764;2022-10-04T01:09:56;12.20;1.40
2174;DHT22;1093;51.424;11.764;2022-10-04T01:12:35;12.10;1.40
2174;DHT22;1093;51.424;11.764;2022-10-04T01:15:07;12.10;1.40
2174;DHT22;1093;51.424;11.764;2022-10-04T01:17:37;12.10;1.40
2174;DHT22;1093;51.424;11.764;2022-10-04T01:20:31;12.10;1.40
2174;DHT22;1093;51.424;11.764;2022-10-04T01:23:02;12.00;1.40
2174;DHT22;1093;51.424;11.764;2022-10-04T01:25:43;12.00;1.40
2174;DHT22;1093;51.424;11.764;2022-10-04T01:28:11;11.90;1.40
2174;DHT22;1093;51.424;11.764;2022-10-04T01:30:38;11.90;1.40
2174;DHT22;1093;51.424;11.764;2022-10-04T01:33:05;11.90;1.40
2174;DHT22;1093;51.424;11.764;2022-10-04T01:35:32;11.80;1.40
2174;DHT22;1093;51.424;11.764;2022-10-04T01:38:03;11.70;1.40
2174;DHT22;1093;51.424;11.764;2022-10-04T01:40:32;11.70;1.40
2174;DHT22;1093;51.424;11.764;2022-10-04T01:43:01;11.70;1.40
2174;DHT22;1093;51.424;11.764;2022-10-04T01:45:34;11.60;1.40
2174;DHT22;1093;51.424;11.764;2022-10-04T01:48:07;11.60;1.40
2174;DHT22;1093;51.424;11.764;2022-10-04T01:50:39;11.60;1.40
2174;DHT22;1093;51.424;11.764;2022-10-04T01:53:13;11.50;1.40
2174;DHT22;1093;51.424;11.764;2022-10-04T01:55:44;11.40;1.40
2174;DHT22;1093;51.424;11.764;2022-10-04T01:58:16;11.40;1.40
2174;DHT22;1093;51.424;11.764;2022-10-04T02:00:48;11.40;1.40
2174;DHT22;1093;51.424;11.764;2022-10-04T02:03:19;11.30;1.40
2174;DHT22;1093;51.424;11.764;2022-10-04T02:05:51;11.30;1.40
2174;DHT22;1093;51.424;11.764;2022-10-04T02:08:25;11.20;1.40
2174;DHT22;1093;51.424;11.764;2022-10-04T02:10:53;11.20;1.40
2174;DHT22;1093;51.424;11.764;2022-10-04T02:13:22;11.20;1.40
2174;DHT22;1093;51.424;11.764;2022-10-04T02:15:52;11.10;1.40
2174;DHT22;1093;51.424;11.764;2022-10-04T02:18:20;11.10;1.40
2174;DHT22;1093;51.424;11.764;2022-10-04T02:20:48;11.00;1.40
2174;DHT22;1093;51.424;11.764;2022-10-04T02:23:17;11.00;1.40
2174;DHT22;1093;51.424;11.764;2022-10-04T02:25:46;11.00;1.40
2174;DHT22;1093;51.424;11.764;2022-10-04T02:28:14;11.00;1.40
2174;DHT22;1093;51.424;11.764;2022-10-04T02:30:46;10.90;1.40
2174;DHT22;1093;51.424;11.764;2022-10-04T02:33:38;10.80;1.40
2174;DHT22;1093;51.424;11.764;2022-10-04T02:36:06;10.80;1.40
2174;DHT22;1093;51.424;11.764;2022-10-04T02:38:37;10.80;1.40
2174;DHT22;1093;51.424;11.764;2022-10-04T02:41:11;10.80;1.40
2174;DHT22;1093;51.424;11.764;2022-10-04T02:43:47;10.80;1.40
2174;DHT22;1093;51.424;11.764;2022-10-04T02:46:20;10.70;1.40
2174;DHT22;1093;51.424;11.764;2022-10-04T02:48:52;10.70;1.40
2174;DHT22;1093;51.424;11.764;2022-10-04T02:51:24;10.70;1.40
2174;DHT22;1093;51.424;11.764;2022-10-04T02:53:59;10.60;1.40
2174;DHT22;1093;51.424;11.764;2022-10-04T02:56:29;10.60;1.40
2174;DHT22;1093;51.424;11.764;2022-10-04T02:59:00;10.60;1.40
2174;DHT22;1093;51.424;11.764;2022-10-04T03:01:39;10.60;1.40
2174;DHT22;1093;51.424;11.764;2022-10-04T03:04:10;10.50;1.40
2174;DHT22;1093;51.424;11.764;2022-10-04T03:06:38;10.60;1.40
2174;DHT22;1093;51.424;11.764;2022-10-04T03:09:05;10.50;1.40
2174;DHT22;1093;51.424;11.764;2022-10-04T03:11:35;10.50;1.40
2174;DHT22;1093;51.424;11.764;2022-10-04T03:14:06;10.50;1.40
2174;DHT22;1093;51.424;11.764;2022-10-04T03:16:36;10.50;1.40
2174;DHT22;1093;51.424;11.764;2022-10-04T03:19:05;10.40;1.40
2174;DHT22;1093;51.424;11.764;2022-10-04T03:21:33;10.40;1.40
2174;DHT22;1093;51.424;11.764;2022-10-04T03:24:02;10.40;1.40
2174;DHT22;1093;51.424;11.764;2022-10-04T03:26:32;10.40;1.40
2174;DHT22;1093;51.424;11.764;2022-10-04T03:29:06;10.40;1.40
2174;DHT22;1093;51.424;11.764;2022-10-04T03:31:38;10.40;1.40
2174;DHT22;1093;51.424;11.764;2022-10-04T03:34:12;10.40;1.40
2174;DHT22;1093;51.424;11.764;2022-10-04T03:36:41;10.40;1.40
2174;DHT22;1093;51.424;11.764;2022-10-04T03:39:10;10.40;1.40
2174;DHT22;1093;51.424;11.764;2022-10-04T03:41:38;10.40;1.40
2174;DHT22;1093;51.424;11.764;2022-10-04T03:44:13;10.40;1.40
2174;DHT22;1093;51.424;11.764;2022-10-04T03:46:42;10.40;1.40
2174;DHT22;1093;51.424;11.764;2022-10-04T03:49:11;10.40;1.40
2174;DHT22;1093;51.424;11.764;2022-10-04T03:51:43;10.40;1.40
2174;DHT22;1093;51.424;11.764;2022-10-04T03:54:16;10.40;1.40
2174;DHT22;1093;51.424;11.764;2022-10-04T03:56:44;10.40;1.40
2174;DHT22;1093;51.424;11.764;2022-10-04T03:59:16;10.40;1.40
2174;DHT22;1093;51.424;11.764;2022-10-04T04:01:46;10.40;1.40
2174;DHT22;1093;51.424;11.764;2022-10-04T04:04:20;10.40;1.40
2174;DHT22;1093;51.424;11.764;2022-10-04T04:06:55;10.50;1.40
2174;DHT22;1093;51.424;11.764;2022-10-04T04:09:36;10.50;1.40
2174;DHT22;1093;51.424;11.764;2022-10-04T04:12:10;10.50;1.40
2174;DHT22;1093;51.424;11.764;2022-10-04T04:14:41;10.50;1.40
2174;DHT22;1093;51.424;11.764;2022-10-04T04:17:33;10.40;1.40
2174;DHT22;1093;51.424;11.764;2022-10-04T04:20:04;10.50;1.40
2174;DHT22;1093;51.424;11.764;2022-10-04T04:22:34;10.50;1.40
2174;DHT22;1093;51.424;11.764;2022-10-04T04:25:05;10.50;1.40
2174;DHT22;1093;51.424;11.764;2022-10-04T04:27:36;10.50;1.40
2174;DHT22;1093;51.424;11.764;2022-10-04T04:30:11;10.50;1.40
2174;DHT22;1093;51.424;11.764;2022-10-04T04:32:40;10.50;1.40
2174;DHT22;1093;51.424;11.764;2022-10-04T04:35:21;10.50;1.40
2174;DHT22;1093;51.424;11.764;2022-10-04T04:38:09;10.50;1.40
2174;DHT22;1093;51.424;11.764;2022-10-04T04:40:39;10.50;1.40
2174;DHT22;1093;51.424;11.764;2022-10-04T04:43:12;10.50;1.40
2174;DHT22;1093;51.424;11.764;2022-10-04T04:45:42;10.50;1.40
2174;DHT22;1093;51.424;11.764;2022-10-04T04:48:12;10.50;1.40
2174;DHT22;1093;51.424;11.764;2022-10-04T04:50:40;10.50;1.40
2174;DHT22;1093;51.424;11.764;2022-10-04T04:53:13;10.50;1.40
2174;DHT22;1093;51.424;11.764;2022-10-04T04:55:43;10.50;1.40
2174;DHT22;1093;51.424;11.764;2022-10-04T04:58:16;10.50;1.40
2174;DHT22;1093;51.424;11.764;2022-10-04T05:00:52;10.50;1.40
2174;DHT22;1093;51.424;11.764;2022-10-04T05:03:20;10.50;1.40
2174;DHT22;1093;51.424;11.764;2022-10-04T05:05:48;10.50;1.40
2174;DHT22;1093;51.424;11.764;2022-10-04T05:08:19;10.50;1.40
2174;DHT22;1093;51.424;11.764;2022-10-04T05:10:50;10.60;1.40
2174;DHT22;1093;51.424;11.764;2022-10-04T05:13:21;10.50;1.40
2174;DHT22;1093;51.424;11.764;2022-10-04T05:15:53;10.60;1.40
2174;DHT22;1093;51.424;11.764;2022-10-04T05:18:28;10.50;1.40
2174;DHT22;1093;51.424;11.764;2022-10-04T05:20:58;10.50;1.40
2174;DHT22;1093;51.424;11.764;2022-10-04T05:23:28;10.50;1.40
2174;DHT22;1093;51.424;11.764;2022-10-04T05:25:55;10.50;1.40
2174;DHT22;1093;51.424;11.764;2022-10-04T05:28:25;10.60;1.40
2174;DHT22;1093;51.424;11.764;2022-10-04T05:31:07;10.60;1.40
2174;DHT22;1093;51.424;11.764;2022-10-04T05:33:44;10.60;1.40
2174;DHT22;1093;51.424;11.764;2022-10-04T05:36:51;10.60;1.40
2174;DHT22;1093;51.424;11.764;2022-10-04T05:39:25;10.70;1.40
2174;DHT22;1093;51.424;11.764;2022-10-04T05:41:58;10.60;1.40
2174;DHT22;1093;51.424;11.764;2022-10-04T05:44:28;10.70;1.40
2174;DHT22;1093;51.424;11.764;2022-10-04T05:46:58;10.70;1.40
2174;DHT22;1093;51.424;11.764;2022-10-04T05:49:29;10.70;1.40
2174;DHT22;1093;51.424;11.764;2022-10-04T05:52:00;10.70;1.40
2174;DHT22;1093;51.424;11.764;2022-10-04T05:54:29;10.70;1.40
2174;DHT22;1093;51.424;11.764;2022-10-04T06:03:12;10.80;1.40
2174;DHT22;1093;51.424;11.764;2022-10-04T06:05:48;10.80;1.40
2174;DHT22;1093;51.424;11.764;2022-10-04T06:08:24;10.80;1.40
2174;DHT22;1093;51.424;11.764;2022-10-04T06:11:04;10.80;1.40
2174;DHT22;1093;51.424;11.764;2022-10-04T06:14:00;10.90;1.40
2174;DHT22;1093;51.424;11.764;2022-10-04T06:16:40;10.80;1.40
2174;DHT22;1093;51.424;11.764;2022-10-04T06:19:31;10.90;1.40
2174;DHT22;1093;51.424;11.764;2022-10-04T06:22:13;10.90;1.40
2174;DHT22;1093;51.424;11.764;2022-10-04T06:24:42;10.90;1.40
2174;DHT22;1093;51.424;11.764;2022-10-04T06:27:13;10.90;1.40
2174;DHT22;1093;51.424;11.764;2022-10-04T06:29:46;10.90;1.40
2174;DHT22;1093;51.424;11.764;2022-10-04T06:35:29;11.00;1.40
2174;DHT22;1093;51.424;11.764;2022-10-04T06:38:25;11.10;1.40
2174;DHT22;1093;51.424;11.764;2022-10-04T06:41:21;11.10;1.40
2174;DHT22;1093;51.424;11.764;2022-10-04T06:44:20;11.20;1.40
2174;DHT22;1093;51.424;11.764;2022-10-04T06:47:00;11.20;1.40
2174;DHT22;1093;51.424;11.764;2022-10-04T06:49:41;11.30;1.40
2174;DHT22;1093;51.424;11.764;2022-10-04T06:52:29;11.30;1.40
2174;DHT22;1093;51.424;11.764;2022-10-04T06:58:16;11.40;1.40
2174;DHT22;1093;51.424;11.764;2022-10-04T07:00:53;11.40;1.40
2174;DHT22;1093;51.424;11.764;2022-10-04T07:03:25;11.50;1.40
2174;DHT22;1093;51.424;11.764;2022-10-04T07:05:56;11.50;1.40
2174;DHT22;1093;51.424;11.764;2022-10-04T07:08:34;11.50;1.40
2174;DHT22;1093;51.424;11.764;2022-10-04T07:11:10;11.60;1.40
2174;DHT22;1093;51.424;11.764;2022-10-04T07:13:44;11.60;1.40
2174;DHT22;1093;51.424;11.764;2022-10-04T07:16:24;11.70;1.40
2174;DHT22;1093;51.424;11.764;2022-10-04T07:18:58;11.70;1.40
2174;DHT22;1093;51.424;11.764;2022-10-04T07:21:36;11.80;1.40
2174;DHT22;1093;51.424;11.764;2022-10-04T07:24:10;11.80;1.40
2174;DHT22;1093;51.424;11.764;2022-10-04T07:26:44;11.80;1.40
2174;DHT22;1093;51.424;11.764;2022-10-04T07:29:16;11.90;1.40
2174;DHT22;1093;51.424;11.764;2022-10-04T07:31:50;12.00;1.40
2174;DHT22;1093;51.424;11.764;2022-10-04T07:34:23;12.00;1.40
2174;DHT22;1093;51.424;11.764;2022-10-04T07:36:52;12.00;1.40
2174;DHT22;1093;51.424;11.764;2022-10-04T07:39:24;12.10;1.40
2174;DHT22;1093;51.424;11.764;2022-10-04T07:41:55;12.10;1.40
2174;DHT22;1093;51.424;11.764;2022-10-04T07:44:33;12.30;1.40
2174;DHT22;1093;51.424;11.764;2022-10-04T07:47:04;12.30;1.40
2174;DHT22;1093;51.424;11.764;2022-10-04T07:49:38;12.30;1.40
2174;DHT22;1093;51.424;11.764;2022-10-04T07:52:29;12.40;1.40
2174;DHT22;1093;51.424;11.764;2022-10-04T07:55:07;12.50;1.40
2174;DHT22;1093;51.424;11.764;2022-10-04T07:57:46;12.50;1.40
2174;DHT22;1093;51.424;11.764;2022-10-04T08:00:18;12.60;1.40
2174;DHT22;1093;51.424;11.764;2022-10-04T08:02:55;12.60;1.40
2174;DHT22;1093;51.424;11.764;2022-10-04T08:05:28;12.70;1.40
2174;DHT22;1093;51.424;11.764;2022-10-04T08:08:14;12.70;1.40
2174;DHT22;1093;51.424;11.764;2022-10-04T08:10:51;12.80;1.40
2174;DHT22;1093;51.424;11.764;2022-10-04T08:13:27;12.80;1.40
2174;DHT22;1093;51.424;11.764;2022-10-04T08:16:01;12.90;1.40
2174;DHT22;1093;51.424;11.764;2022-10-04T08:18:37;13.00;1.40
2174;DHT22;1093;51.424;11.764;2022-10-04T08:21:13;13.00;1.40
2174;DHT22;1093;51.424;11.764;2022-10-04T08:23:58;13.10;1.40
2174;DHT22;1093;51.424;11.764;2022-10-04T08:26:39;13.20;1.40
2174;DHT22;1093;51.424;11.764;2022-10-04T08:29:29;13.30;1.40
2174;DHT22;1093;51.424;11.764;2022-10-04T08:32:19;13.40;1.40
2174;DHT22;1093;51.424;11.764;2022-10-04T08:35:06;13.50;1.40
2174;DHT22;1093;51.424;11.764;2022-10-04T08:37:47;13.60;1.40
2174;DHT22;1093;51.424;11.764;2022-10-04T08:40:56;13.60;1.40
2174;DHT22;1093;51.424;11.764;2022-10-04T08:43:53;13.60;1.40
2174;DHT22;1093;51.424;11.764;2022-10-04T08:47:02;13.70;1.40
2174;DHT22;1093;51.424;11.764;2022-10-04T08:49:59;13.80;1.40
2174;DHT22;1093;51.424;11.764;2022-10-04T08:52:45;13.90;1.40
2174;DHT22;1093;51.424;11.764;2022-10-04T08:55:43;14.00;1.40
2174;DHT22;1093;51.424;11.764;2022-10-04T09:01:18;14.10;1.40
2174;DHT22;1093;51.424;11.764;2022-10-04T09:04:14;14.10;1.40
2174;DHT22;1093;51.424;11.764;2022-10-04T09:07:02;14.20;1.40
2174;DHT22;1093;51.424;11.764;2022-10-04T09:09:55;14.20;1.40
2174;DHT22;1093;51.424;11.764;2022-10-04T09:12:50;14.20;1.40
2174;DHT22;1093;51.424;11.764;2022-10-04T09:15:28;14.30;1.40
2174;DHT22;1093;51.424;11.764;2022-10-04T09:18:18;14.40;1.40
2174;DHT22;1093;51.424;11.764;2022-10-04T09:20:54;14.40;1.40
2174;DHT22;1093;51.424;11.764;2022-10-04T09:23:47;14.50;1.40
2174;DHT22;1093;51.424;11.764;2022-10-04T09:26:21;14.60;1.40
2174;DHT22;1093;51.424;11.764;2022-10-04T09:35:17;15.00;1.40
2174;DHT22;1093;51.424;11.764;2022-10-04T09:38:13;15.10;1.40
2174;DHT22;1093;51.424;11.764;2022-10-04T09:41:13;15.20;1.40
2174;DHT22;1093;51.424;11.764;2022-10-04T09:47:08;15.40;1.40
2174;DHT22;1093;51.424;11.764;2022-10-04T09:50:05;15.30;1.40
2174;DHT22;1093;51.424;11.764;2022-10-04T09:52:44;15.50;1.40
2174;DHT22;1093;51.424;11.764;2022-10-04T09:55:24;15.60;1.40
2174;DHT22;1093;51.424;11.764;2022-10-04T10:00:58;15.80;1.40
2174;DHT22;1093;51.424;11.764;2022-10-04T10:03:46;15.90;1.40
2174;DHT22;1093;51.424;11.764;2022-10-04T10:07:03;15.90;1.40
2174;DHT22;1093;51.424;11.764;2022-10-04T10:09:38;15.90;1.40
2174;DHT22;1093;51.424;11.764;2022-10-04T10:12:49;16.00;1.40
2174;DHT22;1093;51.424;11.764;2022-10-04T10:15:47;16.00;1.40
2174;DHT22;1093;51.424;11.764;2022-10-04T10:18:22;16.10;1.40
2174;DHT22;1093;51.424;11.764;2022-10-04T10:21:01;16.20;1.40
2174;DHT22;1093;51.424;11.764;2022-10-04T10:23:54;16.20;1.40
2174;DHT22;1093;51.424;11.764;2022-10-04T10:26:57;16.40;1.40
2174;DHT22;1093;51.424;11.764;2022-10-04T10:32:58;16.70;1.40
2174;DHT22;1093;51.424;11.764;2022-10-04T10:35:46;16.80;1.40
2174;DHT22;1093;51.424;11.764;2022-10-04T10:38:29;16.90;1.40
2174;DHT22;1093;51.424;11.764;2022-10-04T10:44:22;16.90;1.40
2174;DHT22;1093;51.424;11.764;2022-10-04T10:47:06;17.00;1.40
2174;DHT22;1093;51.424;11.764;2022-10-04T10:49:47;17.00;1.40
2174;DHT22;1093;51.424;11.764;2022-10-04T10:52:42;17.00;1.40
2174;DHT22;1093;51.424;11.764;2022-10-04T11:01:43;17.10;1.40
2174;DHT22;1093;51.424;11.764;2022-10-04T11:07:34;17.20;1.40
2174;DHT22;1093;51.424;11.764;2022-10-04T11:10:36;17.20;1.40
2174;DHT22;1093;51.424;11.764;2022-10-04T11:13:53;17.30;1.40
2174;DHT22;1093;51.424;11.764;2022-10-04T11:28:42;17.60;1.40
2174;DHT22;1093;51.424;11.764;2022-10-04T11:34:46;17.70;1.40
2174;DHT22;1093;51.424;11.764;2022-10-04T11:37:34;17.70;1.40
2174;DHT22;1093;51.424;11.764;2022-10-04T11:40:38;17.80;1.40
2174;DHT22;1093;51.424;11.764;2022-10-04T11:43:24;17.90;1.40
2174;DHT22;1093;51.424;11.764;2022-10-04T11:46:11;18.00;1.40
2174;DHT22;1093;51.424;11.764;2022-10-04T11:48:51;18.00;1.40
2174;DHT22;1093;51.424;11.764;2022-10-04T11:55:22;18.00;1.40
2174;DHT22;1093;51.424;11.764;2022-10-04T11:57:58;18.10;1.40
2174;DHT22;1093;51.424;11.764;2022-10-04T12:00:45;18.10;1.40
2174;DHT22;1093;51.424;11.764;2022-10-04T12:03:35;18.10;1.40
2174;DHT22;1093;51.424;11.764;2022-10-04T12:06:23;18.20;1.40
2174;DHT22;1093;51.424;11.764;2022-10-04T12:09:09;18.20;1.40
2174;DHT22;1093;51.424;11.764;2022-10-04T12:12:00;18.20;1.40
2174;DHT22;1093;51.424;11.764;2022-10-04T12:15:05;18.30;1.40
2174;DHT22;1093;51.424;11.764;2022-10-04T12:18:10;18.30;1.40
2174;DHT22;1093;51.424;11.764;2022-10-04T12:21:09;18.30;1.40
2174;DHT22;1093;51.424;11.764;2022-10-04T12:23:55;18.30;1.40
2174;DHT22;1093;51.424;11.764;2022-10-04T12:26:46;18.30;1.40
2174;DHT22;1093;51.424;11.764;2022-10-04T12:29:51;18.30;1.40
2174;DHT22;1093;51.424;11.764;2022-10-04T12:32:30;18.30;1.40
2174;DHT22;1093;51.424;11.764;2022-10-04T12:35:06;18.40;1.40
2174;DHT22;1093;51.424;11.764;2022-10-04T12:37:58;18.40;1.40
2174;DHT22;1093;51.424;11.764;2022-10-04T12:40:33;18.40;1.40
2174;DHT22;1093;51.424;11.764;2022-10-04T12:43:10;18.50;1.40
2174;DHT22;1093;51.424;11.764;2022-10-04T12:45:49;18.50;1.40
2174;DHT22;1093;51.424;11.764;2022-10-04T12:48:36;18.50;1.40
2174;DHT22;1093;51.424;11.764;2022-10-04T12:51:20;18.60;1.40
2174;DHT22;1093;51.424;11.764;2022-10-04T12:53:54;18.60;1.40
2174;DHT22;1093;51.424;11.764;2022-10-04T12:56:41;18.60;1.40
2174;DHT22;1093;51.424;11.764;2022-10-04T12:59:30;18.60;1.40
2174;DHT22;1093;51.424;11.764;2022-10-04T13:02:08;18.60;1.40
2174;DHT22;1093;51.424;11.764;2022-10-04T13:04:45;18.60;1.40
2174;DHT22;1093;51.424;11.764;2022-10-04T13:07:36;18.70;1.40
2174;DHT22;1093;51.424;11.764;2022-10-04T13:10:18;18.70;1.40
2174;DHT22;1093;51.424;11.764;2022-10-04T13:13:17;18.70;1.40
2174;DHT22;1093;51.424;11.764;2022-10-04T13:15:52;18.80;1.40
2174;DHT22;1093;51.424;11.764;2022-10-04T13:18:30;18.90;1.40
2174;DHT22;1093;51.424;11.764;2022-10-04T13:21:02;18.90;1.40
2174;DHT22;1093;51.424;11.764;2022-10-04T13:23:40;18.90;1.40
2174;DHT22;1093;51.424;11.764;2022-10-04T13:29:01;19.00;1.40
2174;DHT22;1093;51.424;11.764;2022-10-04T13:31:33;18.90;1.40
2174;DHT22;1093;51.424;11.764;2022-10-04T13:34:12;18.90;1.40
2174;DHT22;1093;51.424;11.764;2022-10-04T13:36:53;18.90;1.40
2174;DHT22;1093;51.424;11.764;2022-10-04T13:42:31;19.00;1.40
2174;DHT22;1093;51.424;11.764;2022-10-04T13:45:19;19.00;1.40
2174;DHT22;1093;51.424;11.764;2022-10-04T13:48:15;19.00;1.40
2174;DHT22;1093;51.424;11.764;2022-10-04T13:50:59;19.10;1.40
2174;DHT22;1093;51.424;11.764;2022-10-04T13:53:36;19.10;1.40
2174;DHT22;1093;51.424;11.764;2022-10-04T13:56:56;19.10;1.40
2174;DHT22;1093;51.424;11.764;2022-10-04T13:59:31;19.20;1.40
2174;DHT22;1093;51.424;11.764;2022-10-04T14:02:28;19.10;1.40
2174;DHT22;1093;51.424;11.764;2022-10-04T14:05:26;19.10;1.40
2174;DHT22;1093;51.424;11.764;2022-10-04T14:08:14;19.10;1.40
2174;DHT22;1093;51.424;11.764;2022-10-04T14:14:04;19.20;1.40
2174;DHT22;1093;51.424;11.764;2022-10-04T14:17:02;19.30;1.40
2174;DHT22;1093;51.424;11.764;2022-10-04T14:19:59;19.20;1.40
2174;DHT22;1093;51.424;11.764;2022-10-04T14:23:05;19.30;1.40
2174;DHT22;1093;51.424;11.764;2022-10-04T14:25:58;19.30;1.40
2174;DHT22;1093;51.424;11.764;2022-10-04T14:28:49;19.30;1.40
2174;DHT22;1093;51.424;11.764;2022-10-04T14:31:51;19.30;1.40
2174;DHT22;1093;51.424;11.764;2022-10-04T14:34:44;19.30;1.40
2174;DHT22;1093;51.424;11.764;2022-10-04T14:37:43;19.30;1.40
2174;DHT22;1093;51.424;11.764;2022-10-04T14:40:35;19.30;1.40
2174;DHT22;1093;51.424;11.764;2022-10-04T14:46:16;19.40;1.40
2174;DHT22;1093;51.424;11.764;2022-10-04T14:48:55;19.40;1.40
2174;DHT22;1093;51.424;11.764;2022-10-04T14:51:58;19.40;1.40
2174;DHT22;1093;51.424;11.764;2022-10-04T14:54:39;19.50;1.40
2174;DHT22;1093;51.424;11.764;2022-10-04T14:57:12;19.50;1.40
2174;DHT22;1093;51.424;11.764;2022-10-04T15:00:18;19.40;1.40
2174;DHT22;1093;51.424;11.764;2022-10-04T15:03:07;19.40;1.40
2174;DHT22;1093;51.424;11.764;2022-10-04T15:05:55;19.30;1.40
2174;DHT22;1093;51.424;11.764;2022-10-04T15:08:37;19.30;1.40
2174;DHT22;1093;51.424;11.764;2022-10-04T15:11:09;19.30;1.40
2174;DHT22;1093;51.424;11.764;2022-10-04T15:13:49;19.30;1.40
2174;DHT22;1093;51.424;11.764;2022-10-04T15:16:30;19.20;1.40
2174;DHT22;1093;51.424;11.764;2022-10-04T15:19:04;19.20;1.40
2174;DHT22;1093;51.424;11.764;2022-10-04T15:21:49;19.10;1.40
2174;DHT22;1093;51.424;11.764;2022-10-04T15:24:26;19.10;1.40
2174;DHT22;1093;51.424;11.764;2022-10-04T15:30:07;19.00;1.40
2174;DHT22;1093;51.424;11.764;2022-10-04T15:32:39;18.90;1.40
2174;DHT22;1093;51.424;11.764;2022-10-04T15:35:18;18.80;1.40
2174;DHT22;1093;51.424;11.764;2022-10-04T15:37:52;18.80;1.40
2174;DHT22;1093;51.424;11.764;2022-10-04T15:40:34;18.80;1.40
2174;DHT22;1093;51.424;11.764;2022-10-04T15:43:16;18.70;1.40
2174;DHT22;1093;51.424;11.764;2022-10-04T15:46:10;18.70;1.40
2174;DHT22;1093;51.424;11.764;2022-10-04T15:48:58;18.50;1.40
2174;DHT22;1093;51.424;11.764;2022-10-04T15:51:43;18.50;1.40
2174;DHT22;1093;51.424;11.764;2022-10-04T15:55:00;18.40;1.40
2174;DHT22;1093;51.424;11.764;2022-10-04T15:57:36;18.30;1.40
2174;DHT22;1093;51.424;11.764;2022-10-04T16:00:11;18.30;1.40
2174;DHT22;1093;51.424;11.764;2022-10-04T16:03:07;18.20;1.40
2174;DHT22;1093;51.424;11.764;2022-10-04T16:05:42;18.10;1.40
2174;DHT22;1093;51.424;11.764;2022-10-04T16:08:28;18.10;1.40
2174;DHT22;1093;51.424;11.764;2022-10-04T16:11:12;18.00;1.40
2174;DHT22;1093;51.424;11.764;2022-10-04T16:14:05;18.00;1.40
2174;DHT22;1093;51.424;11.764;2022-10-04T16:17:06;17.90;1.40
2174;DHT22;1093;51.424;11.764;2022-10-04T16:19:59;17.80;1.40
2174;DHT22;1093;51.424;11.764;2022-10-04T16:22:31;17.80;1.40
2174;DHT22;1093;51.424;11.764;2022-10-04T16:24:58;17.70;1.40
2174;DHT22;1093;51.424;11.764;2022-10-04T16:28:07;17.60;1.40
2174;DHT22;1093;51.424;11.764;2022-10-04T16:30:41;17.40;1.40
2174;DHT22;1093;51.424;11.764;2022-10-04T16:33:25;17.40;1.40
2174;DHT22;1093;51.424;11.764;2022-10-04T16:36:07;17.30;1.40
2174;DHT22;1093;51.424;11.764;2022-10-04T16:38:43;17.20;1.40
2174;DHT22;1093;51.424;11.764;2022-10-04T16:41:38;17.10;1.40
2174;DHT22;1093;51.424;11.764;2022-10-04T16:44:22;17.00;1.40
2174;DHT22;1093;51.424;11.764;2022-10-04T16:46:53;16.90;1.40
2174;DHT22;1093;51.424;11.764;2022-10-04T16:49:25;16.80;1.40
2174;DHT22;1093;51.424;11.764;2022-10-04T16:52:13;16.70;1.40
2174;DHT22;1093;51.424;11.764;2022-10-04T16:55:08;16.60;1.40
2174;DHT22;1093;51.424;11.764;2022-10-04T17:00:33;16.40;1.40
2174;DHT22;1093;51.424;11.764;2022-10-04T17:03:10;16.30;1.40
2174;DHT22;1093;51.424;11.764;2022-10-04T17:05:59;16.20;1.40
2174;DHT22;1093;51.424;11.764;2022-10-04T17:08:46;16.10;1.40
2174;DHT22;1093;51.424;11.764;2022-10-04T17:11:31;16.00;1.40
2174;DHT22;1093;51.424;11.764;2022-10-04T17:14:02;15.90;1.40
2174;DHT22;1093;51.424;11.764;2022-10-04T17:16:36;15.80;1.40
2174;DHT22;1093;51.424;11.764;2022-10-04T17:19:25;15.70;1.40
2174;DHT22;1093;51.424;11.764;2022-10-04T17:22:00;15.60;1.40
2174;DHT22;1093;51.424;11.764;2022-10-04T17:24:42;15.50;1.40
2174;DHT22;1093;51.424;11.764;2022-10-04T17:27:24;15.50;1.40
2174;DHT22;1093;51.424;11.764;2022-10-04T17:30:11;15.40;1.40
2174;DHT22;1093;51.424;11.764;2022-10-04T17:32:48;15.30;1.40
2174;DHT22;1093;51.424;11.764;2022-10-04T17:35:53;15.20;1.40
2174;DHT22;1093;51.424;11.764;2022-10-04T17:38:28;15.10;1.40
2174;DHT22;1093;51.424;11.764;2022-10-04T17:41:06;15.10;1.40
2174;DHT22;1093;51.424;11.764;2022-10-04T17:43:56;15.00;1.40
2174;DHT22;1093;51.424;11.764;2022-10-04T17:46:29;15.00;1.40
2174;DHT22;1093;51.424;11.764;2022-10-04T17:49:03;14.90;1.40
2174;DHT22;1093;51.424;11.764;2022-10-04T17:51:54;14.90;1.40
2174;DHT22;1093;51.424;11.764;2022-10-04T17:54:43;14.80;1.40
2174;DHT22;1093;51.424;11.764;2022-10-04T17:57:38;14.70;1.40
2174;DHT22;1093;51.424;11.764;2022-10-04T18:00:08;14.60;1.40
2174;DHT22;1093;51.424;11.764;2022-10-04T18:03:01;14.50;1.40
2174;DHT22;1093;51.424;11.764;2022-10-04T18:05:34;14.50;1.40
2174;DHT22;1093;51.424;11.764;2022-10-04T18:08:14;14.40;1.40
2174;DHT22;1093;51.424;11.764;2022-10-04T18:10:47;14.40;1.40
2174;DHT22;1093;51.424;11.764;2022-10-04T18:13:24;14.40;1.40
2174;DHT22;1093;51.424;11.764;2022-10-04T18:16:00;14.30;1.40
2174;DHT22;1093;51.424;11.764;2022-10-04T18:18:29;14.20;1.40
2174;DHT22;1093;51.424;11.764;2022-10-04T18:21:18;14.10;1.40
2174;DHT22;1093;51.424;11.764;2022-10-04T18:23:51;14.10;1.40
2174;DHT22;1093;51.424;11.764;2022-10-04T18:26:20;14.00;1.40
2174;DHT22;1093;51.424;11.764;2022-10-04T18:28:50;14.00;1.40
2174;DHT22;1093;51.424;11.764;2022-10-04T18:31:24;14.00;1.40
2174;DHT22;1093;51.424;11.764;2022-10-04T18:33:55;13.90;1.40
2174;DHT22;1093;51.424;11.764;2022-10-04T18:36:26;13.90;1.40
2174;DHT22;1093;51.424;11.764;2022-10-04T18:39:18;13.80;1.40
2174;DHT22;1093;51.424;11.764;2022-10-04T18:41:54;13.80;1.40
2174;DHT22;1093;51.424;11.764;2022-10-04T18:44:27;13.70;1.40